createdAt,value
2016-12-24T00:00:03.248Z,0
2016-12-24T00:01:03.359Z,0
2016-12-24T00:02:02.959Z,0
2016-12-24T00:03:02.981Z,0
2016-12-24T00:04:03.308Z,0
2016-12-24T00:05:03.330Z,0
2016-12-24T00:06:03.024Z,0
2016-12-24T00:07:03.982Z,0
2016-12-24T00:08:03.069Z,0
2016-12-24T00:09:03.081Z,0
2016-12-24T00:10:03.411Z,0
2016-12-24T00:11:03.528Z,0
2016-12-24T00:12:03.734Z,0
2016-12-24T00:13:03.143Z,0
2016-12-24T00:14:03.446Z,0
2016-12-24T00:15:03.467Z,0
2016-12-24T00:16:03.795Z,0
2016-12-24T00:17:03.494Z,0
2016-12-24T00:18:03.511Z,0
2016-12-24T00:19:03.208Z,0
2016-12-24T00:20:03.555Z,0
2016-12-24T00:21:03.252Z,0
2016-12-24T00:22:03.889Z,0
2016-12-24T00:23:03.901Z,0
2016-12-24T00:24:03.638Z,0
2016-12-24T00:25:04.249Z,0
2016-12-24T00:26:03.753Z,0
2016-12-24T00:27:03.647Z,0
2016-12-24T00:28:03.344Z,0
2016-12-24T00:29:03.364Z,0
2016-12-24T00:30:03.690Z,0
2016-12-24T00:31:03.706Z,0
2016-12-24T00:32:03.403Z,0
2016-12-24T00:33:04.059Z,0
2016-12-24T00:34:04.065Z,0
2016-12-24T00:35:03.458Z,0
2016-12-24T00:36:03.561Z,0
2016-12-24T00:37:03.798Z,0
2016-12-24T00:38:03.498Z,0
2016-12-24T00:39:03.509Z,0
2016-12-24T00:40:03.526Z,0
2016-12-24T00:41:04.168Z,0
2016-12-24T00:42:03.872Z,0
2016-12-24T00:43:03.884Z,0
2016-12-24T00:44:03.900Z,0
2016-12-24T00:45:03.916Z,0
2016-12-24T00:46:04.027Z,0
2016-12-24T00:47:03.951Z,0
2016-12-24T00:48:03.955Z,0
2016-12-24T00:49:03.656Z,0
2016-12-24T00:50:03.985Z,0
2016-12-24T00:51:04.327Z,0
2016-12-24T00:52:04.022Z,0
2016-12-24T00:53:04.053Z,0
2016-12-24T00:54:03.733Z,0
2016-12-24T00:55:03.432Z,0
2016-12-24T00:56:04.076Z,0
2016-12-24T00:57:04.103Z,0
2016-12-24T00:58:04.422Z,0
2016-12-24T00:59:04.435Z,0
2016-12-24T01:00:04.163Z,0
2016-12-24T01:01:04.251Z,0
2016-12-24T01:02:04.802Z,0
2016-12-24T01:03:04.181Z,0
2016-12-24T01:04:04.831Z,0
2016-12-24T01:05:03.896Z,0
2016-12-24T01:06:04.875Z,0
2016-12-24T01:07:03.609Z,0
2016-12-24T01:08:04.283Z,0
2016-12-24T01:09:04.295Z,0
2016-12-24T01:10:04.600Z,0
2016-12-24T01:11:04.005Z,0
2016-12-24T01:12:04.354Z,0
2016-12-24T01:13:04.049Z,0
2016-12-24T01:14:04.666Z,0
2016-12-24T01:15:04.400Z,0
2016-12-24T01:16:04.492Z,0
2016-12-24T01:17:04.085Z,0
2016-12-24T01:18:03.771Z,0
2016-12-24T01:19:04.425Z,0
2016-12-24T01:20:04.438Z,0
2016-12-24T01:21:04.765Z,0
2016-12-24T01:22:04.780Z,0
2016-12-24T01:23:04.163Z,0
2016-12-24T01:24:04.177Z,0
2016-12-24T01:25:04.515Z,0
2016-12-24T01:26:04.527Z,0
2016-12-24T01:27:04.855Z,0
2016-12-24T01:28:04.552Z,0
2016-12-24T01:29:04.892Z,0
2016-12-24T01:30:04.609Z,0
2016-12-24T01:31:04.305Z,0
2016-12-24T01:32:04.940Z,0
2016-12-24T01:33:05.406Z,0
2016-12-24T01:34:04.329Z,0
2016-12-24T01:35:04.514Z,0
2016-12-24T01:36:04.751Z,0
2016-12-24T01:37:05.163Z,0
2016-12-24T01:38:04.389Z,0
2016-12-24T01:39:04.413Z,0
2016-12-24T01:40:05.289Z,0
2016-12-24T01:41:04.521Z,0
2016-12-24T01:42:04.779Z,0
2016-12-24T01:43:04.479Z,0
2016-12-24T01:44:04.162Z,0
2016-12-24T01:45:04.807Z,0
2016-12-24T01:46:05.135Z,0
2016-12-24T01:47:04.208Z,0
2016-12-24T01:48:05.484Z,0
2016-12-24T01:49:04.544Z,0
2016-12-24T01:50:04.763Z,0
2016-12-24T01:51:04.900Z,0
2016-12-24T01:52:05.287Z,0
2016-12-24T01:53:04.608Z,0
2016-12-24T01:54:04.941Z,0
2016-12-24T01:55:05.296Z,0
2016-12-24T01:56:04.972Z,0
2016-12-24T01:57:04.354Z,0
2016-12-24T01:58:05.017Z,0
2016-12-24T01:59:05.352Z,0
2016-12-24T02:00:05.343Z,0
2016-12-24T02:01:05.052Z,0
2016-12-24T02:02:04.743Z,0
2016-12-24T02:03:05.391Z,0
2016-12-24T02:04:05.403Z,0
2016-12-24T02:05:05.416Z,0
2016-12-24T02:06:05.433Z,0
2016-12-24T02:07:05.136Z,0
2016-12-24T02:08:05.461Z,0
2016-12-24T02:09:05.487Z,0
2016-12-24T02:10:04.863Z,0
2016-12-24T02:11:05.192Z,0
2016-12-24T02:12:05.209Z,0
2016-12-24T02:13:05.227Z,0
2016-12-24T02:14:05.246Z,0
2016-12-24T02:15:05.571Z,0
2016-12-24T02:16:05.266Z,0
2016-12-24T02:17:05.310Z,0
2016-12-24T02:18:04.988Z,0
2016-12-24T02:19:05.334Z,0
2016-12-24T02:20:05.655Z,0
2016-12-24T02:21:05.347Z,0
2016-12-24T02:22:05.046Z,0
2016-12-24T02:23:05.378Z,0
2016-12-24T02:24:05.071Z,0
2016-12-24T02:25:05.719Z,0
2016-12-24T02:26:05.417Z,0
2016-12-24T02:27:05.757Z,0
2016-12-24T02:28:05.133Z,0
2016-12-24T02:29:05.468Z,0
2016-12-24T02:30:05.801Z,0
2016-12-24T02:31:05.174Z,0
2016-12-24T02:32:05.559Z,0
2016-12-24T02:33:05.524Z,0
2016-12-24T02:34:05.892Z,0
2016-12-24T02:35:05.560Z,0
2016-12-24T02:36:05.261Z,0
2016-12-24T02:37:05.274Z,0
2016-12-24T02:38:05.283Z,0
2016-12-24T02:39:05.619Z,0
2016-12-24T02:40:05.653Z,0
2016-12-24T02:41:05.352Z,0
2016-12-24T02:42:05.995Z,0
2016-12-24T02:43:06.002Z,0
2016-12-24T02:44:05.390Z,0
2016-12-24T02:45:05.394Z,0
2016-12-24T02:46:06.056Z,0
2016-12-24T02:47:05.737Z,0
2016-12-24T02:48:05.439Z,0
2016-12-24T02:49:05.136Z,0
2016-12-24T02:50:06.418Z,0
2016-12-24T02:51:05.167Z,0
2016-12-24T02:52:05.497Z,0
2016-12-24T02:53:05.833Z,0
2016-12-24T02:54:05.211Z,0
2016-12-24T02:55:06.175Z,0
2016-12-24T02:56:05.243Z,0
2016-12-24T02:57:06.220Z,0
2016-12-24T02:58:05.903Z,0
2016-12-24T02:59:05.918Z,0
2016-12-24T03:00:06.286Z,0
2016-12-24T03:01:06.298Z,0
2016-12-24T03:02:06.281Z,0
2016-12-24T03:03:05.981Z,0
2016-12-24T03:04:05.684Z,0
2016-12-24T03:05:05.376Z,0
2016-12-24T03:06:05.722Z,0
2016-12-24T03:07:06.355Z,0
2016-12-24T03:08:06.405Z,0
2016-12-24T03:09:06.704Z,0
2016-12-24T03:10:06.086Z,0
2016-12-24T03:11:06.110Z,0
2016-12-24T03:12:06.434Z,0
2016-12-24T03:13:06.454Z,0
2016-12-24T03:14:05.836Z,0
2016-12-24T03:15:06.164Z,0
2016-12-24T03:16:06.489Z,0
2016-12-24T03:17:06.190Z,0
2016-12-24T03:18:06.213Z,0
2016-12-24T03:19:06.540Z,0
2016-12-24T03:20:06.559Z,0
2016-12-24T03:21:05.936Z,0
2016-12-24T03:22:06.269Z,0
2016-12-24T03:23:06.602Z,0
2016-12-24T03:24:06.620Z,0
2016-12-24T03:25:06.646Z,0
2016-12-24T03:26:06.339Z,0
2016-12-24T03:27:06.662Z,0
2016-12-24T03:28:06.367Z,0
2016-12-24T03:29:06.059Z,0
2016-12-24T03:30:06.709Z,0
2016-12-24T03:31:06.722Z,0
2016-12-24T03:32:06.738Z,0
2016-12-24T03:33:06.446Z,0
2016-12-24T03:34:06.453Z,0
2016-12-24T03:35:06.188Z,0
2016-12-24T03:36:06.795Z,0
2016-12-24T03:37:05.876Z,0
2016-12-24T03:38:06.516Z,0
2016-12-24T03:39:06.847Z,0
2016-12-24T03:40:07.183Z,0
2016-12-24T03:41:06.246Z,0
2016-12-24T03:42:06.578Z,0
2016-12-24T03:43:06.905Z,0
2016-12-24T03:44:06.300Z,0
2016-12-24T03:45:06.945Z,0
2016-12-24T03:46:06.665Z,0
2016-12-24T03:47:06.967Z,0
2016-12-24T03:48:06.666Z,0
2016-12-24T03:49:06.363Z,0
2016-12-24T03:50:06.703Z,0
2016-12-24T03:51:06.727Z,0
2016-12-24T03:52:06.740Z,0
2016-12-24T03:53:06.444Z,0
2016-12-24T03:54:06.470Z,0
2016-12-24T03:55:06.796Z,0
2016-12-24T03:56:06.816Z,0
2016-12-24T03:57:06.834Z,0
2016-12-24T03:58:06.502Z,0
2016-12-24T03:59:06.524Z,0
2016-12-24T04:00:06.544Z,0
2016-12-24T04:01:07.181Z,0
2016-12-24T04:02:06.881Z,0
2016-12-24T04:03:06.909Z,0
2016-12-24T04:04:06.597Z,0
2016-12-24T04:05:06.930Z,0
2016-12-24T04:06:07.258Z,0
2016-12-24T04:07:07.279Z,0
2016-12-24T04:08:07.284Z,0
2016-12-24T04:09:06.687Z,0
2016-12-24T04:10:07.032Z,0
2016-12-24T04:11:07.341Z,0
2016-12-24T04:12:06.721Z,0
2016-12-24T04:13:07.050Z,0
2016-12-24T04:14:06.749Z,0
2016-12-24T04:15:07.400Z,0
2016-12-24T04:16:06.778Z,0
2016-12-24T04:17:06.508Z,0
2016-12-24T04:18:07.135Z,0
2016-12-24T04:19:07.453Z,0
2016-12-24T04:20:07.154Z,0
2016-12-24T04:21:06.853Z,0
2016-12-24T04:22:07.500Z,0
2016-12-24T04:23:06.895Z,0
2016-12-24T04:24:07.219Z,0
2016-12-24T04:25:06.604Z,0
2016-12-24T04:26:07.248Z,0
2016-12-24T04:27:07.575Z,0
2016-12-24T04:28:06.653Z,0
2016-12-24T04:29:07.312Z,0
2016-12-24T04:30:06.991Z,0
2016-12-24T04:31:07.335Z,0
2016-12-24T04:32:07.662Z,0
2016-12-24T04:33:07.400Z,0
2016-12-24T04:34:08.004Z,0
2016-12-24T04:35:07.385Z,0
2016-12-24T04:36:07.401Z,0
2016-12-24T04:37:07.097Z,0
2016-12-24T04:38:07.429Z,0
2016-12-24T04:39:07.757Z,0
2016-12-24T04:40:07.502Z,0
2016-12-24T04:41:07.471Z,0
2016-12-24T04:42:07.495Z,0
2016-12-24T04:43:07.194Z,0
2016-12-24T04:44:07.839Z,0
2016-12-24T04:45:06.900Z,0
2016-12-24T04:46:07.870Z,0
2016-12-24T04:47:07.251Z,0
2016-12-24T04:48:07.625Z,0
2016-12-24T04:49:06.968Z,0
2016-12-24T04:50:07.612Z,0
2016-12-24T04:51:07.942Z,0
2016-12-24T04:52:07.955Z,0
2016-12-24T04:53:07.347Z,0
2016-12-24T04:54:07.671Z,0
2016-12-24T04:55:07.379Z,0
2016-12-24T04:56:07.393Z,0
2016-12-24T04:57:07.719Z,0
2016-12-24T04:58:08.362Z,0
2016-12-24T04:59:07.747Z,0
2016-12-24T05:00:07.768Z,0
2016-12-24T05:01:07.465Z,0
2016-12-24T05:02:07.479Z,0
2016-12-24T05:03:07.494Z,0
2016-12-24T05:04:07.839Z,0
2016-12-24T05:05:07.865Z,0
2016-12-24T05:06:08.171Z,0
2016-12-24T05:07:08.191Z,0
2016-12-24T05:08:07.900Z,0
2016-12-24T05:09:07.904Z,0
2016-12-24T05:10:07.932Z,0
2016-12-24T05:11:07.932Z,0
2016-12-24T05:12:08.579Z,0
2016-12-24T05:13:07.963Z,0
2016-12-24T05:14:07.977Z,0
2016-12-24T05:15:07.682Z,0
2016-12-24T05:16:07.699Z,0
2016-12-24T05:17:08.040Z,0
2016-12-24T05:18:08.039Z,0
2016-12-24T05:19:08.061Z,0
2016-12-24T05:20:08.069Z,0
2016-12-24T05:21:08.399Z,0
2016-12-24T05:22:08.124Z,0
2016-12-24T05:23:08.151Z,0
2016-12-24T05:24:08.138Z,0
2016-12-24T05:25:07.519Z,0
2016-12-24T05:26:07.852Z,0
2016-12-24T05:27:08.814Z,0
2016-12-24T05:28:08.196Z,0
2016-12-24T05:29:08.208Z,0
2016-12-24T05:30:08.218Z,0
2016-12-24T05:31:08.246Z,0
2016-12-24T05:32:08.252Z,0
2016-12-24T05:33:08.272Z,0
2016-12-24T05:34:08.283Z,0
2016-12-24T05:35:08.613Z,0
2016-12-24T05:36:08.633Z,0
2016-12-24T05:37:08.337Z,0
2016-12-24T05:38:07.717Z,0
2016-12-24T05:39:08.391Z,0
2016-12-24T05:40:07.756Z,0
2016-12-24T05:41:07.764Z,0
2016-12-24T05:42:08.725Z,0
2016-12-24T05:43:08.107Z,0
2016-12-24T05:44:08.761Z,0
2016-12-24T05:45:08.162Z,0
2016-12-24T05:46:08.514Z,0
2016-12-24T05:47:08.486Z,0
2016-12-24T05:48:08.847Z,0
2016-12-24T05:49:08.833Z,0
2016-12-24T05:50:08.220Z,0
2016-12-24T05:51:08.551Z,0
2016-12-24T05:52:08.914Z,0
2016-12-24T05:53:08.262Z,0
2016-12-24T05:54:08.279Z,0
2016-12-24T05:55:08.015Z,0
2016-12-24T05:56:08.631Z,0
2016-12-24T05:57:08.959Z,0
2016-12-24T05:58:08.660Z,0
2016-12-24T05:59:08.672Z,0
2016-12-24T06:00:08.377Z,0
2016-12-24T06:01:09.022Z,0
2016-12-24T06:02:08.721Z,0
2016-12-24T06:03:09.060Z,0
2016-12-24T06:04:08.458Z,0
2016-12-24T06:05:09.082Z,0
2016-12-24T06:06:08.782Z,0
2016-12-24T06:07:08.492Z,0
2016-12-24T06:08:08.815Z,0
2016-12-24T06:09:09.467Z,0
2016-12-24T06:10:08.841Z,0
2016-12-24T06:11:09.175Z,0
2016-12-24T06:12:08.557Z,0
2016-12-24T06:13:08.893Z,0
2016-12-24T06:14:08.588Z,0
2016-12-24T06:15:09.551Z,0
2016-12-24T06:16:08.621Z,0
2016-12-24T06:17:08.959Z,0
2016-12-24T06:18:08.651Z,0
2016-12-24T06:19:08.662Z,0
2016-12-24T06:20:08.689Z,0
2016-12-24T06:21:09.021Z,0
2016-12-24T06:22:09.346Z,0
2016-12-24T06:23:09.679Z,0
2016-12-24T06:24:09.383Z,0
2016-12-24T06:25:09.395Z,0
2016-12-24T06:26:09.095Z,0
2016-12-24T06:27:09.104Z,0
2016-12-24T06:28:08.489Z,0
2016-12-24T06:29:08.502Z,0
2016-12-24T06:30:09.154Z,0
2016-12-24T06:31:08.848Z,0
2016-12-24T06:32:09.194Z,0
2016-12-24T06:33:08.888Z,0
2016-12-24T06:34:09.527Z,0
2016-12-24T06:35:09.283Z,0
2016-12-24T06:36:08.930Z,0
2016-12-24T06:37:08.940Z,0
2016-12-24T06:38:08.643Z,0
2016-12-24T06:39:09.300Z,0
2016-12-24T06:40:09.945Z,0
2016-12-24T06:41:09.334Z,0
2016-12-24T06:42:09.651Z,0
2016-12-24T06:43:09.043Z,0
2016-12-24T06:44:09.386Z,0
2016-12-24T06:45:09.072Z,0
2016-12-24T06:46:09.722Z,0
2016-12-24T06:47:09.405Z,0
2016-12-24T06:48:10.057Z,0
2016-12-24T06:49:09.121Z,0
2016-12-24T06:50:09.488Z,0
2016-12-24T06:51:09.170Z,0
2016-12-24T06:52:09.191Z,0
2016-12-24T06:53:09.506Z,0
2016-12-24T06:54:10.162Z,0
2016-12-24T06:55:09.228Z,0
2016-12-24T06:56:09.747Z,0
2016-12-24T06:57:09.558Z,0
2016-12-24T06:58:09.605Z,0
2016-12-24T06:59:09.595Z,0
2016-12-24T07:00:09.295Z,0
2016-12-24T07:01:09.372Z,0
2016-12-24T07:02:10.259Z,0
2016-12-24T07:03:09.644Z,0
2016-12-24T07:04:09.353Z,0
2016-12-24T07:05:09.685Z,0
2016-12-24T07:06:10.007Z,0
2016-12-24T07:07:09.397Z,0
2016-12-24T07:08:09.762Z,0
2016-12-24T07:09:09.106Z,0
2016-12-24T07:10:09.435Z,0
2016-12-24T07:11:09.767Z,0
2016-12-24T07:12:09.809Z,0
2016-12-24T07:13:09.160Z,0
2016-12-24T07:14:09.488Z,0
2016-12-24T07:15:09.511Z,0
2016-12-24T07:16:09.211Z,0
2016-12-24T07:17:09.854Z,0
2016-12-24T07:18:10.177Z,0
2016-12-24T07:19:09.569Z,0
2016-12-24T07:20:09.579Z,0
2016-12-24T07:21:09.916Z,0
2016-12-24T07:22:10.587Z,0
2016-12-24T07:23:10.279Z,0
2016-12-24T07:24:09.962Z,0
2016-12-24T07:25:09.658Z,0
2016-12-24T07:26:10.626Z,0
2016-12-24T07:27:10.009Z,0
2016-12-24T07:28:10.334Z,0
2016-12-24T07:29:09.719Z,0
2016-12-24T07:30:09.749Z,0
2016-12-24T07:31:10.388Z,5
2016-12-24T07:32:10.395Z,5
2016-12-24T07:33:10.087Z,5
2016-12-24T07:34:10.440Z,5
2016-12-24T07:35:10.125Z,5
2016-12-24T07:36:10.478Z,5
2016-12-24T07:37:09.839Z,5
2016-12-24T07:38:09.851Z,5
2016-12-24T07:39:10.498Z,5
2016-12-24T07:40:10.195Z,5
2016-12-24T07:41:10.287Z,5
2016-12-24T07:42:10.242Z,5
2016-12-24T07:43:10.366Z,5
2016-12-24T07:44:10.604Z,5
2016-12-24T07:45:10.270Z,5
2016-12-24T07:46:09.979Z,5
2016-12-24T07:47:10.314Z,10
2016-12-24T07:48:10.320Z,10
2016-12-24T07:49:10.347Z,10
2016-12-24T07:50:10.346Z,10
2016-12-24T07:51:10.365Z,10
2016-12-24T07:52:10.059Z,10
2016-12-24T07:53:10.075Z,10
2016-12-24T07:54:10.095Z,10
2016-12-24T07:55:10.426Z,10
2016-12-24T07:56:10.437Z,10
2016-12-24T07:57:10.454Z,10
2016-12-24T07:58:10.151Z,10
2016-12-24T07:59:10.801Z,10
2016-12-24T08:00:10.813Z,10
2016-12-24T08:01:10.828Z,10
2016-12-24T08:02:10.840Z,10
2016-12-24T08:03:10.859Z,10
2016-12-24T08:04:10.875Z,10
2016-12-24T08:05:10.889Z,10
2016-12-24T08:06:10.274Z,10
2016-12-24T08:07:10.600Z,10
2016-12-24T08:08:10.620Z,10
2016-12-24T08:09:10.975Z,10
2016-12-24T08:10:10.993Z,10
2016-12-24T08:11:10.669Z,10
2016-12-24T08:12:10.678Z,10
2016-12-24T08:13:10.693Z,10
2016-12-24T08:14:10.713Z,10
2016-12-24T08:15:10.417Z,10
2016-12-24T08:16:10.740Z,10
2016-12-24T08:17:11.076Z,10
2016-12-24T08:18:10.147Z,10
2016-12-24T08:19:11.104Z,10
2016-12-24T08:20:10.484Z,10
2016-12-24T08:21:10.815Z,10
2016-12-24T08:22:10.516Z,10
2016-12-24T08:23:10.568Z,10
2016-12-24T08:24:11.179Z,10
2016-12-24T08:25:10.581Z,10
2016-12-24T08:26:10.588Z,10
2016-12-24T08:27:10.595Z,10
2016-12-24T08:28:10.616Z,10
2016-12-24T08:29:10.937Z,10
2016-12-24T08:30:10.954Z,10
2016-12-24T08:31:11.288Z,10
2016-12-24T08:32:10.664Z,10
2016-12-24T08:33:11.319Z,10
2016-12-24T08:34:11.023Z,5
2016-12-24T08:35:11.040Z,5
2016-12-24T08:36:11.042Z,5
2016-12-24T08:37:10.430Z,5
2016-12-24T08:38:11.079Z,5
2016-12-24T08:39:11.087Z,5
2016-12-24T08:40:11.114Z,5
2016-12-24T08:41:11.436Z,5
2016-12-24T08:42:11.447Z,5
2016-12-24T08:43:10.855Z,5
2016-12-24T08:44:10.868Z,5
2016-12-24T08:45:10.868Z,5
2016-12-24T08:46:11.198Z,5
2016-12-24T08:47:11.220Z,5
2016-12-24T08:48:26.137Z,5
2016-12-24T08:49:10.652Z,5
2016-12-24T08:50:10.949Z,5
2016-12-24T08:51:11.273Z,5
2016-12-24T08:52:10.977Z,5
2016-12-24T08:53:11.329Z,5
2016-12-24T08:54:11.649Z,5
2016-12-24T08:55:11.351Z,10
2016-12-24T08:56:11.666Z,10
2016-12-24T08:57:11.681Z,10
2016-12-24T08:58:11.738Z,10
2016-12-24T08:59:11.710Z,10
2016-12-24T09:00:11.727Z,10
2016-12-24T09:01:11.772Z,10
2016-12-24T09:02:11.776Z,10
2016-12-24T09:03:11.157Z,15
2016-12-24T09:04:11.795Z,15
2016-12-24T09:05:11.491Z,15
2016-12-24T09:06:11.848Z,15
2016-12-24T09:07:11.553Z,15
2016-12-24T09:08:11.543Z,15
2016-12-24T09:09:11.237Z,20
2016-12-24T09:10:11.579Z,20
2016-12-24T09:11:11.588Z,20
2016-12-24T09:12:11.614Z,20
2016-12-24T09:13:11.936Z,25
2016-12-24T09:14:11.946Z,25
2016-12-24T09:15:11.965Z,25
2016-12-24T09:16:11.996Z,30
2016-12-24T09:17:11.084Z,30
2016-12-24T09:18:12.011Z,30
2016-12-24T09:19:11.390Z,35
2016-12-24T09:20:11.420Z,40
2016-12-24T09:21:11.741Z,55
2016-12-24T09:22:11.759Z,75
2016-12-24T09:23:11.779Z,50
2016-12-24T09:24:11.493Z,110
2016-12-24T09:25:12.131Z,105
2016-12-24T09:26:11.519Z,95
2016-12-24T09:27:12.153Z,100
2016-12-24T09:28:11.858Z,50
2016-12-24T09:29:11.873Z,35
2016-12-24T09:30:11.894Z,40
2016-12-24T09:31:12.038Z,80
2016-12-24T09:32:12.259Z,65
2016-12-24T09:33:11.935Z,30
2016-12-24T09:34:11.953Z,60
2016-12-24T09:35:11.659Z,50
2016-12-24T09:36:12.043Z,35
2016-12-24T09:37:11.690Z,30
2016-12-24T09:38:12.343Z,30
2016-12-24T09:39:11.411Z,30
2016-12-24T09:40:12.371Z,30
2016-12-24T09:41:12.444Z,30
2016-12-24T09:42:12.405Z,30
2016-12-24T09:43:11.470Z,25
2016-12-24T09:44:12.123Z,25
2016-12-24T09:45:12.135Z,25
2016-12-24T09:46:11.894Z,25
2016-12-24T09:47:12.171Z,20
2016-12-24T09:48:12.822Z,20
2016-12-24T09:49:11.893Z,30
2016-12-24T09:50:12.222Z,40
2016-12-24T09:51:12.287Z,50
2016-12-24T09:52:12.260Z,45
2016-12-24T09:53:11.963Z,40
2016-12-24T09:54:12.284Z,30
2016-12-24T09:55:12.626Z,35
2016-12-24T09:56:12.322Z,55
2016-12-24T09:57:12.340Z,40
2016-12-24T09:58:12.357Z,25
2016-12-24T09:59:12.408Z,35
2016-12-24T10:00:11.766Z,30
2016-12-24T10:01:12.148Z,30
2016-12-24T10:02:12.423Z,25
2016-12-24T10:03:12.451Z,20
2016-12-24T10:04:13.118Z,20
2016-12-24T10:05:12.797Z,15
2016-12-24T10:06:12.919Z,15
2016-12-24T10:07:11.881Z,10
2016-12-24T10:08:11.897Z,10
2016-12-24T10:09:12.575Z,10
2016-12-24T10:10:12.269Z,15
2016-12-24T10:11:11.951Z,15
2016-12-24T10:12:13.227Z,15
2016-12-24T10:13:12.623Z,15
2016-12-24T10:14:12.324Z,15
2016-12-24T10:15:12.652Z,15
2016-12-24T10:16:26.933Z,10
2016-12-24T10:17:12.372Z,10
2016-12-24T10:18:12.702Z,10
2016-12-24T10:19:12.725Z,10
2016-12-24T10:20:13.367Z,5
2016-12-24T10:21:13.122Z,5
2016-12-24T10:22:13.089Z,5
2016-12-24T10:23:13.122Z,5
2016-12-24T10:24:13.121Z,5
2016-12-24T10:25:13.139Z,5
2016-12-24T10:26:12.894Z,10
2016-12-24T10:27:12.542Z,10
2016-12-24T10:28:13.193Z,10
2016-12-24T10:29:12.262Z,10
2016-12-24T10:30:13.233Z,10
2016-12-24T10:31:12.976Z,10
2016-12-24T10:32:13.261Z,10
2016-12-24T10:33:27.539Z,10
2016-12-24T10:34:12.665Z,10
2016-12-24T10:35:13.362Z,10
2016-12-24T10:36:12.697Z,10
2016-12-24T10:37:12.718Z,10
2016-12-24T10:38:13.407Z,10
2016-12-24T10:39:13.064Z,10
2016-12-24T10:40:13.085Z,10
2016-12-24T10:41:13.108Z,15
2016-12-24T10:42:12.503Z,15
2016-12-24T10:43:13.142Z,15
2016-12-24T10:44:13.165Z,15
2016-12-24T10:45:12.880Z,15
2016-12-24T10:46:12.711Z,15
2016-12-24T10:47:13.529Z,15
2016-12-24T10:48:12.942Z,15
2016-12-24T10:49:13.572Z,15
2016-12-24T10:50:13.584Z,15
2016-12-24T10:51:12.645Z,15
2016-12-24T10:52:13.304Z,15
2016-12-24T10:53:12.995Z,15
2016-12-24T10:54:13.332Z,15
2016-12-24T10:55:13.037Z,15
2016-12-24T10:56:13.368Z,15
2016-12-24T10:57:13.069Z,15
2016-12-24T10:58:13.086Z,15
2016-12-24T10:59:13.104Z,15
2016-12-24T11:00:13.770Z,15
2016-12-24T11:01:13.507Z,15
2016-12-24T11:02:13.471Z,10
2016-12-24T11:03:13.499Z,10
2016-12-24T11:04:13.506Z,10
2016-12-24T11:05:13.234Z,10
2016-12-24T11:06:12.909Z,10
2016-12-24T11:07:12.927Z,10
2016-12-24T11:08:13.261Z,10
2016-12-24T11:09:13.615Z,10
2016-12-24T11:10:12.980Z,10
2016-12-24T11:11:13.950Z,10
2016-12-24T11:12:13.653Z,10
2016-12-24T11:13:13.668Z,10
2016-12-24T11:14:13.050Z,10
2016-12-24T11:15:13.726Z,10
2016-12-24T11:16:13.738Z,10
2016-12-24T11:17:13.739Z,10
2016-12-24T11:18:14.069Z,10
2016-12-24T11:19:13.774Z,10
2016-12-24T11:20:14.621Z,10
2016-12-24T11:21:13.810Z,10
2016-12-24T11:22:13.825Z,10
2016-12-24T11:23:13.217Z,10
2016-12-24T11:24:13.860Z,15
2016-12-24T11:25:13.564Z,15
2016-12-24T11:26:13.613Z,15
2016-12-24T11:27:14.548Z,15
2016-12-24T11:28:13.638Z,15
2016-12-24T11:29:13.659Z,20
2016-12-24T11:30:13.669Z,30
2016-12-24T11:31:14.038Z,30
2016-12-24T11:32:14.324Z,30
2016-12-24T11:33:13.714Z,20
2016-12-24T11:34:13.721Z,20
2016-12-24T11:35:14.055Z,15
2016-12-24T11:36:14.387Z,15
2016-12-24T11:37:13.809Z,15
2016-12-24T11:38:13.801Z,15
2016-12-24T11:39:14.181Z,10
2016-12-24T11:40:14.153Z,10
2016-12-24T11:41:13.899Z,10
2016-12-24T11:42:14.183Z,10
2016-12-24T11:43:13.580Z,15
2016-12-24T11:44:13.902Z,10
2016-12-24T11:45:14.566Z,10
2016-12-24T11:46:13.679Z,10
2016-12-24T11:47:13.958Z,10
2016-12-24T11:48:14.226Z,10
2016-12-24T11:49:15.037Z,10
2016-12-24T11:50:14.365Z,10
2016-12-24T11:51:14.064Z,10
2016-12-24T11:52:14.364Z,10
2016-12-24T11:53:14.697Z,10
2016-12-24T11:54:14.098Z,10
2016-12-24T11:55:14.107Z,10
2016-12-24T11:56:14.489Z,10
2016-12-24T11:57:13.825Z,10
2016-12-24T11:58:14.473Z,15
2016-12-24T11:59:13.858Z,15
2016-12-24T12:00:14.835Z,15
2016-12-24T12:01:15.207Z,15
2016-12-24T12:02:14.860Z,10
2016-12-24T12:03:14.569Z,10
2016-12-24T12:04:14.268Z,10
2016-12-24T12:05:14.597Z,10
2016-12-24T12:06:14.858Z,10
2016-12-24T12:07:14.005Z,10
2016-12-24T12:08:14.969Z,10
2016-12-24T12:09:14.038Z,10
2016-12-24T12:10:14.699Z,10
2016-12-24T12:11:14.390Z,10
2016-12-24T12:12:15.045Z,15
2016-12-24T12:13:14.743Z,15
2016-12-24T12:14:14.450Z,15
2016-12-24T12:15:14.785Z,10
2016-12-24T12:16:14.810Z,10
2016-12-24T12:17:14.966Z,10
2016-12-24T12:18:14.203Z,10
2016-12-24T12:19:14.532Z,5
2016-12-24T12:20:14.555Z,5
2016-12-24T12:21:15.630Z,5
2016-12-24T12:22:15.226Z,5
2016-12-24T12:23:15.241Z,5
2016-12-24T12:24:14.945Z,10
2016-12-24T12:25:14.962Z,10
2016-12-24T12:26:14.986Z,10
2016-12-24T12:27:15.322Z,10
2016-12-24T12:28:14.391Z,10
2016-12-24T12:29:14.727Z,10
2016-12-24T12:30:15.390Z,10
2016-12-24T12:31:15.093Z,10
2016-12-24T12:32:15.405Z,15
2016-12-24T12:33:14.795Z,15
2016-12-24T12:34:15.129Z,15
2016-12-24T12:35:14.824Z,10
2016-12-24T12:36:14.856Z,5
2016-12-24T12:37:14.866Z,5
2016-12-24T12:38:14.604Z,5
2016-12-24T12:39:15.216Z,5
2016-12-24T12:40:15.235Z,10
2016-12-24T12:41:15.309Z,10
2016-12-24T12:42:14.953Z,10
2016-12-24T12:43:15.305Z,10
2016-12-24T12:44:14.998Z,10
2016-12-24T12:45:15.968Z,10
2016-12-24T12:46:15.340Z,10
2016-12-24T12:47:15.388Z,10
2016-12-24T12:48:29.956Z,10
2016-12-24T12:49:15.433Z,10
2016-12-24T12:50:15.423Z,5
2016-12-24T12:51:15.137Z,5
2016-12-24T12:52:15.461Z,5
2016-12-24T12:53:15.158Z,5
2016-12-24T12:54:16.122Z,5
2016-12-24T12:55:15.512Z,5
2016-12-24T12:56:15.243Z,5
2016-12-24T12:57:16.181Z,5
2016-12-24T12:58:15.262Z,5
2016-12-24T12:59:15.278Z,5
2016-12-24T13:00:15.596Z,5
2016-12-24T13:01:15.314Z,5
2016-12-24T13:02:15.666Z,0
2016-12-24T13:03:15.345Z,0
2016-12-24T13:04:15.358Z,0
2016-12-24T13:05:15.401Z,0
2016-12-24T13:06:15.426Z,5
2016-12-24T13:07:15.430Z,5
2016-12-24T13:08:16.098Z,5
2016-12-24T13:09:15.457Z,5
2016-12-24T13:10:16.438Z,5
2016-12-24T13:11:15.805Z,5
2016-12-24T13:12:15.525Z,5
2016-12-24T13:13:15.841Z,5
2016-12-24T13:14:15.556Z,5
2016-12-24T13:15:15.878Z,5
2016-12-24T13:16:15.585Z,5
2016-12-24T13:17:15.617Z,5
2016-12-24T13:18:15.626Z,5
2016-12-24T13:19:16.273Z,5
2016-12-24T13:20:15.683Z,5
2016-12-24T13:21:15.373Z,5
2016-12-24T13:22:15.714Z,5
2016-12-24T13:23:16.043Z,10
2016-12-24T13:24:16.394Z,5
2016-12-24T13:25:16.696Z,5
2016-12-24T13:26:15.818Z,5
2016-12-24T13:27:16.096Z,5
2016-12-24T13:28:15.494Z,5
2016-12-24T13:29:16.507Z,5
2016-12-24T13:30:16.170Z,5
2016-12-24T13:31:16.172Z,5
2016-12-24T13:32:16.510Z,5
2016-12-24T13:33:16.251Z,5
2016-12-24T13:34:16.863Z,5
2016-12-24T13:35:16.255Z,5
2016-12-24T13:36:16.271Z,5
2016-12-24T13:37:15.656Z,0
2016-12-24T13:38:16.308Z,0
2016-12-24T13:39:15.708Z,0
2016-12-24T13:40:16.343Z,0
2016-12-24T13:41:16.416Z,0
2016-12-24T13:42:16.379Z,0
2016-12-24T13:43:16.717Z,0
2016-12-24T13:44:17.068Z,0
2016-12-24T13:45:16.121Z,0
2016-12-24T13:46:16.480Z,0
2016-12-24T13:47:16.157Z,0
2016-12-24T13:48:16.815Z,0
2016-12-24T13:49:16.513Z,0
2016-12-24T13:50:15.896Z,0
2016-12-24T13:51:16.228Z,0
2016-12-24T13:52:16.886Z,0
2016-12-24T13:53:16.900Z,0
2016-12-24T13:54:16.918Z,0
2016-12-24T13:55:16.625Z,0
2016-12-24T13:56:16.651Z,0
2016-12-24T13:57:16.340Z,0
2016-12-24T13:58:16.677Z,0
2016-12-24T13:59:17.016Z,0
2016-12-24T14:01:17.145Z,0
2016-12-24T14:02:16.755Z,0
2016-12-24T14:03:16.765Z,0
2016-12-24T14:04:16.475Z,0
2016-12-24T14:05:16.807Z,0
2016-12-24T14:06:16.851Z,0
2016-12-24T14:07:17.159Z,0
2016-12-24T14:08:16.859Z,0
2016-12-24T14:09:16.879Z,0
2016-12-24T14:10:16.582Z,0
2016-12-24T14:11:16.280Z,0
2016-12-24T14:12:16.930Z,0
2016-12-24T14:13:16.318Z,0
2016-12-24T14:14:16.678Z,0
2016-12-24T14:15:17.310Z,0
2016-12-24T14:16:17.011Z,0
2016-12-24T14:17:17.680Z,0
2016-12-24T14:18:17.042Z,0
2016-12-24T14:19:17.376Z,0
2016-12-24T14:20:16.772Z,0
2016-12-24T14:21:16.778Z,0
2016-12-24T14:22:17.112Z,0
2016-12-24T14:23:17.144Z,0
2016-12-24T14:24:17.467Z,0
2016-12-24T14:25:17.482Z,0
2016-12-24T14:26:17.500Z,0
2016-12-24T14:27:16.889Z,0
2016-12-24T14:28:17.237Z,5
2016-12-24T14:29:17.248Z,5
2016-12-24T14:30:16.938Z,0
2016-12-24T14:31:17.273Z,0
2016-12-24T14:32:17.294Z,0
2016-12-24T14:33:17.622Z,0
2016-12-24T14:34:17.959Z,0
2016-12-24T14:35:17.352Z,0
2016-12-24T14:36:17.362Z,0
2016-12-24T14:37:17.406Z,0
2016-12-24T14:38:17.710Z,0